Latest Weather Observations for Camooweal

IDQ60801

Issued at 8:32 pm EST Thursday 18 December 2014 (issued every 30 minutes, with the page automatically refreshed every 10 minutes)

About weather observations | Map of weather stations | Latest weather observations for QLD | Other Formats
Station Details ID: 037010 Name: CAMOOWEAL TOWNSHIP Lat: -19.92 Lon: 138.12 Height: 231.2 m
Data from the previous 72 hours. | See also: Recent months at Camooweal
Date/Time
EST
Temp
°C
App
Temp
°C
Dew
Point
Rel
Hum
%
Delta-T
°C
Wind Press
QNH
hPa
Press
MSL
hPa
Rain
since 9 am
mm
Dir
 
Spd
km/h
Gust
km/h
Spd
kts
Gust
kts
18/08:30pm 29.9 29.9 18.0 48 7.7 E 15 20 8 11 1010.5 1008.8 0.0
18/08:00pm 30.0 29.6 18.1 49 7.7 E 17 22 9 12 1010.9 1009.1 0.0
18/07:30pm 30.3 30.1 17.7 46 8.1 SE 15 20 8 11 1010.5 1008.8 0.0
18/07:00pm 30.8 29.9 18.2 47 8.2 SE 20 28 11 15 1010.5 1008.8 0.0
18/06:30pm 31.7 30.3 17.9 43 8.9 SSE 22 32 12 17 1010.2 1008.5 0.0
18/06:00pm 31.5 29.0 18.1 44 8.7 SSE 28 35 15 19 1009.9 1008.2 0.0
18/05:30pm 31.6 30.1 18.6 46 8.5 SSE 24 30 13 16 1009.8 1008.1 0.0
18/05:00pm 31.3 29.4 18.6 46 8.3 SSE 26 35 14 19 1009.5 1007.8 0.0
18/04:30pm 31.8 30.0 18.7 45 8.6 S 26 35 14 19 1009.9 1008.2 0.0
18/04:00pm 31.6 29.0 18.6 46 8.5 S 30 39 16 21 1010.2 1008.5 0.0
18/03:30pm 31.5 28.8 18.5 46 8.5 S 30 41 16 22 1010.8 1009.0 0.0
18/03:00pm 32.9 30.1 19.0 43 9.2 S 32 43 17 23 1011.1 1009.3 0.0
18/02:30pm 32.8 29.5 19.3 45 8.9 S 35 50 19 27 1011.6 1009.8 0.0
18/02:00pm 31.6 28.5 19.6 49 8.0 S 35 50 19 27 1012.2 1010.4 0.0
18/01:30pm 30.8 27.7 20.4 54 7.0 S 37 50 20 27 1012.4 1010.6 0.0
18/01:00pm 31.4 27.5 20.4 52 7.4 S 41 54 22 29 1012.6 1010.8 0.0
18/12:30pm 31.2 28.7 20.8 54 7.0 S 35 46 19 25 1013.2 1011.4 0.0
18/12:00pm 30.0 26.5 20.5 56 6.3 SSW 39 50 21 27 1013.5 1011.8 0.0
18/11:30am 29.5 27.7 22.2 65 5.0 S 35 46 19 25 1013.3 1011.5 0.0
18/11:00am 29.4 27.3 21.6 63 5.3 S 35 48 19 26 1013.1 1011.3 0.0
18/10:35am 30.3 26.6 20.8 56 6.4 SSW 41 59 22 32 1012.6 1010.8 0.0
18/10:30am 30.6 26.5 20.8 56 6.6 SSW 43 59 23 32 1012.4 1010.6 0.0
18/10:26am 30.7 27.1 20.9 56 6.6 SSW 41 59 22 32 1012.2 1010.4 0.0
18/10:15am 31.4 28.5 20.0 50 7.6 SW 35 54 19 29 1012.1 1010.3 0.0
18/10:10am 33.5 32.0 17.6 38 10.3 WSW 22 54 12 29 1011.9 1010.1 0.0
18/10:00am 34.6 34.5 16.9 35 11.4 WNW 13 19 7 10 1011.3 1009.5 0.0
18/09:30am 34.2 33.9 16.5 34 11.3 NW 13 19 7 10 1010.5 1008.8 0.0
18/09:00am 33.5 32.7 17.2 37 10.5 NW 17 24 9 13 1010.2 1008.5 0.0
18/08:30am 32.6 32.9 18.0 41 9.5 NNW 13 20 7 11 1010.0 1008.3 0.0
18/08:00am 31.4 32.0 18.7 46 8.3 NNW 13 20 7 11 1009.8 1008.1 0.0
18/07:30am 31.0 31.4 19.0 48 7.9 N 15 20 8 11 1009.3 1007.5 0.0
18/07:00am 30.3 31.7 19.6 52 7.1 N 11 17 6 9 1009.1 1007.3 0.0
18/06:30am 29.7 32.1 20.0 56 6.4 NNW 7 13 4 7 1008.1 1006.3 0.0
18/06:00am 30.1 31.3 19.8 54 6.8 N 13 17 7 9 1007.9 1006.1 0.0
18/05:30am 30.4 31.1 19.7 52 7.1 N 15 20 8 11 1007.4 1005.6 0.0
18/05:00am 30.8 32.0 19.8 52 7.3 N 13 17 7 9 1007.2 1005.4 0.0
18/04:30am 31.2 32.4 19.9 51 7.5 N 13 20 7 11 1007.2 1005.4 0.0
18/04:00am 31.7 32.4 19.7 49 8.0 N 15 22 8 12 1007.0 1005.2 0.0
18/03:30am 32.0 32.4 19.9 48 8.1 NNW 17 22 9 12 1006.8 1005.0 0.0
18/03:00am 32.2 33.1 20.1 48 8.1 NNW 15 22 8 12 1007.0 1005.2 0.0
18/02:30am 32.6 32.6 20.2 48 8.3 N 20 32 11 17 1007.0 1005.2 0.0
18/02:00am 32.9 32.9 20.1 47 8.6 N 20 26 11 14 1007.0 1005.2 0.0
18/01:30am 33.2 33.1 20.0 45 8.8 NNW 20 28 11 15 1007.2 1005.4 0.0
18/01:00am 33.8 33.7 19.5 43 9.5 N 19 26 10 14 1007.4 1005.6 0.0
18/12:30am 34.2 34.1 18.7 40 10.2 N 17 22 9 12 1007.4 1005.6 0.0
18/12:00am 34.3 34.4 18.3 38 10.5 N 15 20 8 11 1007.3 1005.5 0.0
 
Date/Time
EST
Temp
°C
App
Temp
°C
Dew
Point
Rel
Hum
%
Delta-T
°C
Wind Press
QNH
hPa
Press
MSL
hPa
Rain
since 9 am
mm
Dir
 
Spd
km/h
Gust
km/h
Spd
kts
Gust
kts
17/11:30pm 34.6 35.0 18.2 37 10.8 N 13 17 7 9 1007.3 1005.5 0.0
17/11:00pm 35.0 34.8 16.8 34 11.7 N 13 17 7 9 1007.1 1005.3 0.0
17/10:30pm 34.9 34.3 14.7 29 12.6 NNE 11 15 6 8 1006.9 1005.1 0.0
17/10:00pm 35.5 34.8 14.2 28 13.3 N 11 13 6 7 1006.5 1004.7 0.0
17/09:30pm 35.8 35.0 13.9 27 13.6 N 11 13 6 7 1006.3 1004.5 0.0
17/09:00pm 36.2 35.4 13.0 24 14.3 N 9 13 5 7 1006.2 1004.4 0.0
17/08:30pm 37.2 36.3 12.6 23 15.0 N 9 11 5 6 1005.8 1004.1 0.0
17/08:00pm 37.7 36.7 12.3 22 15.5 N 9 11 5 6 1005.4 1003.6 0.0
17/07:30pm 39.0 37.9 12.0 20 16.5 N 9 13 5 7 1004.9 1003.1 0.0
17/07:00pm 39.6 37.3 11.7 19 17.0 N 15 20 8 11 1004.4 1002.6 0.0
17/06:30pm 40.2 38.8 12.1 19 17.3 NNW 11 20 6 11 - - 0.0
17/06:00pm 40.7 39.7 10.9 17 18.0 N 7 19 4 10 - - 0.0
17/05:30pm 40.7 39.5 11.7 18 17.7 N 9 17 5 9 - - 0.0
17/05:00pm 40.7 39.7 13.3 20 17.1 N 11 17 6 9 - - 0.0
17/04:30pm 40.8 38.9 11.8 18 17.8 NNW 13 24 7 13 - - 0.0
17/04:00pm 41.0 39.5 12.0 18 17.8 N 11 19 6 10 - - 0.0
17/03:30pm 40.7 39.0 12.6 19 17.4 NW 13 20 7 11 1005.1 1003.3 0.0
17/03:00pm 41.0 39.7 13.6 20 17.3 NW 13 26 7 14 1005.6 1003.9 0.0
17/02:30pm 40.1 38.4 13.6 21 16.6 W 15 22 8 12 1005.9 1004.2 0.0
17/02:00pm 40.5 40.7 14.6 21 16.5 W 7 15 4 8 1006.5 1004.7 0.0
17/01:30pm 39.7 39.1 14.7 23 15.9 NW 11 19 6 10 1007.0 1005.2 0.0
17/01:00pm 39.5 38.4 15.2 24 15.6 NW 15 26 8 14 1007.6 1005.8 0.0
17/12:30pm 38.8 38.0 15.2 24 15.0 WSW 13 20 7 11 1007.8 1006.0 0.0
17/12:00pm 38.1 37.0 15.2 25 14.6 W 15 30 8 16 1008.3 1006.5 0.0
17/11:30am 38.1 37.5 14.6 24 14.8 NW 11 20 6 11 1008.5 1006.7 0.0
17/11:00am 37.6 36.1 14.2 25 14.7 NNW 15 24 8 13 1008.5 1006.7 0.0
17/10:30am 37.0 35.6 15.5 28 13.7 NNW 17 22 9 12 1008.5 1006.7 0.0
17/10:00am 36.1 35.2 15.8 30 13.0 NNW 15 22 8 12 1008.7 1006.9 0.0
17/09:30am 34.2 32.6 16.1 34 11.5 N 19 24 10 13 1008.6 1006.8 0.0
17/09:00am 33.1 31.9 16.0 35 10.8 NNW 17 24 9 13 1008.7 1006.9 0.0
17/08:30am 31.7 31.5 16.8 40 9.5 NNW 13 20 7 11 1008.7 1006.9 0.0
17/08:00am 30.3 30.8 17.4 46 8.3 N 11 15 6 8 1008.6 1006.8 0.0
17/07:30am 29.1 32.1 18.5 52 6.9 CALM 0 6 0 3 1008.6 1006.8 0.0
17/07:00am 28.1 31.3 18.8 57 6.0 CALM 0 0 0 0 1008.3 1006.5 0.0
17/06:30am 28.4 29.9 18.8 56 6.2 NNW 9 11 5 6 1007.6 1005.8 0.0
17/06:00am 28.9 29.9 18.7 54 6.6 N 11 15 6 8 1007.1 1005.3 0.0
17/05:30am 29.3 29.9 18.7 52 6.9 N 13 17 7 9 1006.6 1004.8 0.0
17/05:00am 29.7 30.4 18.8 52 7.1 N 13 20 7 11 1006.2 1004.4 0.0
17/04:30am 30.0 30.3 18.8 51 7.3 N 15 20 8 11 1005.9 1004.2 0.0
17/04:00am 30.4 30.7 18.8 50 7.6 N 15 20 8 11 1005.7 1004.0 0.0
17/03:30am 30.7 30.8 18.4 47 8.0 N 15 20 8 11 1005.7 1004.0 0.0
17/03:00am 31.2 30.5 18.2 46 8.5 N 19 24 10 13 1005.5 1003.7 0.0
17/02:30am 31.6 30.7 18.2 44 8.7 N 20 28 11 15 1005.6 1003.9 0.0
17/02:00am 31.9 32.4 19.2 47 8.4 N 15 20 8 11 1005.7 1004.0 0.0
17/01:30am 32.7 32.1 18.8 43 9.1 N 20 32 11 17 1005.5 1003.7 0.0
17/01:00am 33.3 31.8 18.6 41 9.7 N 24 35 13 19 1005.6 1003.9 0.0
17/12:30am 33.9 32.6 17.2 37 10.8 N 20 30 11 16 1005.8 1004.1 0.0
17/12:00am 34.5 33.0 16.4 34 11.6 N 19 33 10 18 1005.7 1004.0 0.0
 
Date/Time
EST
Temp
°C
App
Temp
°C
Dew
Point
Rel
Hum
%
Delta-T
°C
Wind Press
QNH
hPa
Press
MSL
hPa
Rain
since 9 am
mm
Dir
 
Spd
km/h
Gust
km/h
Spd
kts
Gust
kts
16/11:30pm 35.0 33.5 15.3 30 12.4 N 17 24 9 13 1005.8 1004.1 0.0
16/11:00pm 35.6 33.5 14.8 28 13.1 N 19 26 10 14 1005.6 1003.9 0.0
16/10:30pm 35.5 33.8 13.6 26 13.5 N 15 19 8 10 1005.5 1003.7 0.0
16/10:00pm 35.7 33.9 12.0 24 14.3 N 13 17 7 9 1005.3 1003.5 0.0
16/09:30pm 36.2 34.9 11.1 22 15.0 NNE 9 13 5 7 1005.1 1003.3 0.0
16/09:00pm 36.8 34.6 10.9 21 15.5 NNE 13 15 7 8 1005.0 1003.2 0.0
16/08:30pm 37.2 35.5 11.2 21 15.6 NNE 11 13 6 7 1005.0 1003.2 0.0
16/08:00pm 38.3 36.8 10.6 19 16.6 N 9 13 5 7 1004.8 1003.0 0.0
16/07:30pm 39.4 37.2 10.7 18 17.2 N 13 15 7 8 1004.6 1002.8 0.0
16/07:00pm 40.4 37.5 9.7 16 18.2 N 15 19 8 10 - - 0.0
16/06:30pm 41.1 39.6 9.3 15 18.8 N 7 15 4 8 - - 0.0
16/06:00pm 41.4 39.4 8.5 14 19.3 N 9 20 5 11 - - 0.0
16/05:30pm 41.6 39.9 9.7 15 19.0 N 9 15 5 8 - - 0.0
16/05:00pm 41.6 39.5 9.7 15 19.0 N 11 20 6 11 - - 0.0
16/04:30pm 42.2 39.8 10.2 15 19.3 N 13 19 7 10 - - 0.0
16/04:00pm 41.6 39.1 9.7 15 19.1 N 13 24 7 13 1004.5 1002.7 0.0
16/03:30pm 41.1 39.3 9.3 15 18.8 ENE 9 15 5 8 1004.8 1003.0 0.0
16/03:00pm 42.0 40.4 12.8 18 18.3 NE 13 24 7 13 1005.2 1003.4 0.0
16/02:30pm 41.5 39.5 11.5 17 18.4 NNE 13 20 7 11 1005.6 1003.9 0.0
16/02:00pm 41.3 38.9 11.3 17 18.3 N 15 26 8 14 1006.0 1004.3 0.0
16/01:30pm 41.0 38.6 12.8 19 17.5 NNE 17 24 9 13 1006.5 1004.7 0.0
16/01:00pm 40.8 38.5 14.2 21 16.9 N 19 30 10 16 1006.8 1005.0 0.0
16/12:30pm 39.7 37.4 14.7 23 15.9 NNW 20 32 11 17 1007.2 1005.4 0.0
16/12:00pm 39.7 37.3 15.3 23 15.7 N 22 37 12 20 1007.6 1005.8 0.0
16/11:30am 39.5 36.9 15.8 24 15.3 N 24 33 13 18 1008.2 1006.4 0.0
16/11:00am 38.6 36.7 16.8 27 14.2 NNW 22 32 12 17 1008.8 1007.0 0.0
16/10:30am 37.8 35.9 16.7 29 13.7 N 22 33 12 18 1008.9 1007.1 0.0
16/10:00am 36.2 34.6 16.4 31 12.7 N 20 30 11 16 1009.3 1007.5 0.0
16/09:30am 35.4 33.7 15.7 31 12.5 NNW 19 28 10 15 1009.4 1007.6 0.0
16/09:00am 34.1 32.7 16.5 35 11.3 NNW 19 26 10 14 1009.6 1007.9 0.0
16/08:30am 32.7 31.6 17.3 39 9.9 NNW 19 26 10 14 1009.5 1007.8 0.0
16/08:00am 31.6 30.9 18.6 46 8.5 N 20 26 11 14 1009.3 1007.5 0.0
16/07:30am 30.3 30.6 18.7 50 7.6 N 15 20 8 11 1009.2 1007.4 0.0
16/07:00am 29.1 29.9 18.2 51 7.0 N 11 17 6 9 1008.9 1007.1 0.0
16/06:30am 28.2 29.3 18.0 54 6.5 N 9 13 5 7 1008.4 1006.6 0.0
16/06:00am 28.0 29.0 17.8 54 6.5 NNE 9 13 5 7 1007.8 1006.0 0.0
16/05:30am 28.3 29.2 17.5 52 6.9 N 9 11 5 6 1007.4 1005.6 0.0
16/05:00am 28.9 29.7 17.4 49 7.3 N 9 11 5 6 1007.2 1005.4 0.0
16/04:30am 29.5 29.9 17.3 47 7.8 N 11 15 6 8 1006.8 1005.0 0.0
16/04:00am 30.0 30.0 17.1 46 8.2 N 13 17 7 9 1006.6 1004.8 0.0
16/03:30am 30.6 30.6 17.3 45 8.5 N 13 17 7 9 1006.5 1004.7 0.0
16/03:00am 31.1 30.4 17.4 44 8.8 N 17 22 9 12 1006.5 1004.7 0.0
16/02:30am 31.4 31.5 18.4 46 8.5 N 15 20 8 11 1006.6 1004.8 0.0
16/02:00am 31.9 31.8 18.8 45 8.6 N 17 22 9 12 1006.7 1004.9 0.0
16/01:30am 32.0 31.8 18.6 45 8.8 N 17 22 9 12 1006.6 1004.8 0.0
16/01:00am 32.5 31.9 17.5 40 9.7 N 17 22 9 12 1006.8 1005.0 0.0
16/12:30am 33.1 31.0 14.7 33 11.4 NNE 19 28 10 15 1006.9 1005.1 0.0
16/12:00am 33.1 31.3 12.1 27 12.6 NNE 13 17 7 9 1007.0 1005.2 0.0
 
Date/Time
EST
Temp
°C
App
Temp
°C
Dew
Point
Rel
Hum
%
Delta-T
°C
Wind Press
QNH
hPa
Press
MSL
hPa
Rain
since 9 am
mm
Dir
 
Spd
km/h
Gust
km/h
Spd
kts
Gust
kts
15/11:30pm 33.7 32.1 11.5 26 13.2 NNE 11 13 6 7 1006.9 1005.1 0.0
15/11:00pm 34.4 32.4 11.5 25 13.7 NNE 13 17 7 9 1006.9 1005.1 0.0
15/10:30pm 34.4 32.6 10.9 24 13.9 NE 11 13 6 7 1006.8 1005.0 0.0
15/10:00pm 34.7 33.0 11.2 24 14.0 NNE 11 13 6 7 1006.7 1004.9 0.0
15/09:30pm 35.3 33.9 11.0 23 14.4 NNE 9 13 5 7 1006.5 1004.7 0.0
15/09:00pm 35.8 34.5 11.4 23 14.6 NNE 9 15 5 8 1006.5 1004.7 0.0

Other Formats:

Comma delimited format used in spreadsheet applications
http://www.bom.gov.au/fwo/IDQ60801/IDQ60801.94255.axf

JavaScript Object Notation format (JSON) in row-major order
http://www.bom.gov.au/fwo/IDQ60801/IDQ60801.94255.json